Time;durP1;ratioP1;P1;durP2;ratioP2;P2;SDS_P1;SDS_P2;PMS_P1;PMS_P2;Temp;Humidity;BMP_temperature;BMP_pressure;BME280_temperature;BME280_humidity;BME280_pressure;Samples;Min_cycle;Max_cycle;Signal;HPM_P1;HPM_P2
2023/01/19 00:02:17;;;;;;;1.75;1.55;;;;;;;18.96;41.32;101522.13;21080302;28;19922;-62
2023/01/19 00:12:19;;;;;;;3.35;2.05;;;;;;;18.93;40.97;101555.13;21073988;28;20077;-61
2023/01/19 00:22:20;;;;;;;2.67;1.80;;;;;;;18.92;41.13;101575.59;21075644;28;20349;-61
2023/01/19 00:32:21;;;;;;;2.38;1.80;;;;;;;18.82;41.61;101544.94;21020982;28;20142;-61
2023/01/19 00:42:43;;;;;;;14.88;2.92;;;;;;;19.00;41.56;101555.75;21070801;28;20044;-61
2023/01/19 00:52:44;;;;;;;8.20;2.38;;;;;;;19.04;40.92;101535.59;21077419;28;20028;-62
2023/01/19 01:02:51;;;;;;;7.82;3.50;;;;;;;19.01;41.62;101561.06;21046806;28;20382;-62
2023/01/19 01:12:53;;;;;;;6.53;3.40;;;;;;;19.12;41.29;101591.75;21072863;28;20059;-62
2023/01/19 01:22:55;;;;;;;8.68;3.40;;;;;;;19.13;40.92;101585.94;21071584;28;20040;-61
2023/01/19 01:32:57;;;;;;;9.55;4.95;;;;;;;19.18;41.60;101580.47;21042261;28;20513;-61
2023/01/19 01:42:58;;;;;;;11.38;5.78;;;;;;;19.21;41.25;101574.41;21056325;28;20446;-62
2023/01/19 01:53:13;;;;;;;11.05;5.05;;;;;;;19.17;41.74;101556.59;21068432;28;20096;-63
2023/01/19 02:03:15;;;;;;;8.63;4.72;;;;;;;19.33;41.81;101595.66;21082747;28;20054;-63
2023/01/19 02:13:19;;;;;;;35.30;5.90;;;;;;;19.29;42.29;101598.97;21061192;28;20488;-64
2023/01/19 02:23:39;;;;;;;10.00;4.22;;;;;;;19.37;42.39;101594.06;21048448;28;20044;-59
2023/01/19 02:33:41;;;;;;;9.98;4.40;;;;;;;19.45;42.69;101604.75;21071600;28;20044;-61
2023/01/19 02:43:47;;;;;;;13.60;3.90;;;;;;;19.54;42.23;101629.03;21052228;28;20483;-61
2023/01/19 02:54:27;;;;;;;9.02;4.13;;;;;;;19.58;41.99;101637.69;21066359;28;20052;-62
2023/01/19 03:04:37;;;;;;;10.50;3.50;;;;;;;19.66;42.04;101659.50;21056290;28;20040;-62
2023/01/19 03:14:46;;;;;;;8.82;3.40;;;;;;;19.71;42.16;101615.16;21061163;28;20109;-61
2023/01/19 03:24:52;;;;;;;7.72;3.17;;;;;;;19.74;41.90;101592.41;21072819;28;20048;-62
2023/01/19 03:35:01;;;;;;;5.03;3.42;;;;;;;19.64;41.75;101563.66;21079241;28;20387;-62
2023/01/19 03:45:03;;;;;;;5.10;3.17;;;;;;;19.74;41.95;101589.63;21075559;28;20051;-62
2023/01/19 03:55:08;;;;;;;6.88;3.55;;;;;;;19.76;41.67;101581.91;21076722;28;20055;-61
2023/01/19 04:05:18;;;;;;;5.45;3.55;;;;;;;19.76;41.93;101593.00;21051977;28;20097;-61
2023/01/19 04:15:20;;;;;;;17.20;3.60;;;;;;;19.76;42.00;101598.56;21045196;28;20028;-61
2023/01/19 04:25:21;;;;;;;9.27;3.45;;;;;;;19.76;41.89;101609.66;21078152;28;20036;-62
2023/01/19 04:35:22;;;;;;;5.85;3.03;;;;;;;19.80;41.97;101602.50;21078069;28;20051;-62
2023/01/19 04:45:24;;;;;;;7.65;2.97;;;;;;;19.86;41.78;101620.06;21077195;28;20101;-62
2023/01/19 04:55:25;;;;;;;5.35;2.65;;;;;;;19.91;41.86;101610.97;21076452;28;20048;-61
2023/01/19 05:05:27;;;;;;;23.52;4.20;;;;;;;19.93;41.46;101611.53;21071654;28;20129;-60
2023/01/19 05:15:28;;;;;;;6.93;3.45;;;;;;;19.96;41.72;101624.91;21065359;28;20487;-60
2023/01/19 05:25:29;;;;;;;14.02;3.78;;;;;;;20.04;43.96;101628.09;21075290;28;20093;-61
2023/01/19 05:35:31;;;;;;;10.85;3.65;;;;;;;20.08;44.09;101619.25;21043252;28;20380;-61
2023/01/19 05:45:33;;;;;;;10.88;3.85;;;;;;;20.16;43.80;101641.00;21050108;28;20041;-61
2023/01/19 05:55:34;;;;;;;10.23;3.25;;;;;;;20.18;43.60;101639.66;21030282;28;20116;-61
2023/01/19 06:05:37;;;;;;;9.05;3.20;;;;;;;20.13;42.98;101631.25;21038410;28;20040;-62
2023/01/19 06:15:39;;;;;;;7.78;3.40;;;;;;;20.15;42.52;101629.03;21057474;28;20051;-62
2023/01/19 06:25:40;;;;;;;4.25;2.70;;;;;;;20.19;42.11;101629.38;21070151;28;20036;-61
2023/01/19 06:35:49;;;;;;;3.90;3.00;;;;;;;20.19;42.24;101629.38;21071659;28;20040;-61
2023/01/19 06:45:50;;;;;;;;;;;;;;;20.24;41.66;101627.47;21074899;28;20560;-62
2023/01/19 06:55:52;;;;;;;3.92;2.40;;;;;;;20.29;41.44;101612.81;21062855;28;19977;-61
2023/01/19 07:06:01;;;;;;;2.85;2.45;;;;;;;20.21;41.38;101633.56;21073083;28;20511;-62
2023/01/19 07:16:10;;;;;;;5.20;2.65;;;;;;;20.17;41.09;101607.41;21074980;28;20052;-60
2023/01/19 07:26:14;;;;;;;3.17;2.45;;;;;;;20.26;41.10;101607.78;21085715;28;20040;-62
2023/01/19 07:36:15;;;;;;;4.28;2.40;;;;;;;20.24;41.04;101608.03;21078031;28;20496;-62
2023/01/19 07:46:16;;;;;;;3.20;2.30;;;;;;;20.24;41.32;101609.97;21080728;28;20067;-62
2023/01/19 07:56:23;;;;;;;3.00;2.20;;;;;;;20.37;41.35;101597.63;21073753;28;20039;-62
2023/01/19 08:06:32;;;;;;;2.75;1.98;;;;;;;20.44;41.15;101587.13;21074656;28;20051;-62
2023/01/19 08:16:37;;;;;;;2.63;2.00;;;;;;;20.48;40.86;101566.06;21069980;28;20085;-62
2023/01/19 08:26:41;;;;;;;2.58;2.08;;;;;;;20.47;41.16;101533.78;21073026;28;20044;-62
2023/01/19 08:36:45;;;;;;;3.30;2.00;;;;;;;20.50;40.91;101541.63;21071739;28;20056;-62
2023/01/19 08:46:49;;;;;;;2.45;2.10;;;;;;;20.47;40.61;101533.78;21072729;28;20024;-62
2023/01/19 08:56:50;;;;;;;2.00;1.77;;;;;;;20.46;40.93;101535.72;21066533;28;20104;-62
2023/01/19 09:06:52;;;;;;;2.45;1.98;;;;;;;20.51;41.19;101562.75;21071772;28;20601;-62
2023/01/19 09:16:57;;;;;;;2.58;1.95;;;;;;;20.51;41.19;101618.38;21075334;28;20043;-62
2023/01/19 09:26:59;;;;;;;2.38;2.05;;;;;;;20.49;41.03;101628.94;21069254;28;20040;-62
2023/01/19 09:37:09;;;;;;;3.05;1.95;;;;;;;20.50;41.35;101630.59;21075247;28;20052;-62
2023/01/19 09:47:16;;;;;;;2.58;2.00;;;;;;;20.50;41.43;101625.03;21075909;28;20036;-62
2023/01/19 09:57:18;;;;;;;2.55;2.08;;;;;;;20.51;41.14;101599.75;21072946;28;20048;-61
2023/01/19 10:07:25;;;;;;;2.38;2.17;;;;;;;20.53;41.47;101552.22;21068488;28;20036;-62
2023/01/19 10:17:41;;;;;;;2.38;2.10;;;;;;;20.52;41.22;101609.75;21087823;28;20035;-61
2023/01/19 10:27:46;;;;;;;2.92;2.38;;;;;;;20.53;41.08;101618.97;21066175;28;20043;-62
2023/01/19 10:37:47;;;;;;;2.42;2.15;;;;;;;20.52;41.14;101618.09;21083866;28;20044;-62
2023/01/19 10:47:49;;;;;;;2.30;2.10;;;;;;;20.40;41.27;101634.06;21087547;28;20044;-62
2023/01/19 10:57:52;;;;;;;2.30;2.10;;;;;;;20.43;41.24;101619.63;21086803;28;20044;-62
2023/01/19 11:07:54;;;;;;;2.60;2.20;;;;;;;20.51;41.29;101644.22;21084944;28;20040;-62
2023/01/19 11:17:55;;;;;;;2.60;2.25;;;;;;;20.34;41.23;101639.81;21076445;28;20052;-63
2023/01/19 11:27:57;;;;;;;2.53;2.17;;;;;;;20.49;41.20;101657.56;21076452;28;20040;-62
2023/01/19 11:38:19;;;;;;;2.55;2.35;;;;;;;20.43;41.00;101672.44;21077029;28;20040;-62
2023/01/19 11:48:36;;;;;;;2.58;2.03;;;;;;;20.39;41.26;101634.31;21069508;28;20487;-62
2023/01/19 11:58:40;;;;;;;2.60;2.05;;;;;;;20.43;41.02;101605.72;21075179;28;20556;-62
2023/01/19 12:09:10;;;;;;;11.70;2.17;;;;;;;20.37;43.81;101573.44;21062817;28;20456;-62
2023/01/19 12:19:20;;;;;;;8.85;2.95;;;;;;;20.18;43.86;101580.47;21071528;28;20040;-62
2023/01/19 12:29:29;;;;;;;11.13;2.63;;;;;;;20.09;43.71;101634.81;21076443;28;20101;-61
2023/01/19 12:39:32;;;;;;;5.53;2.63;;;;;;;20.14;43.00;101610.69;21078720;28;20545;-61
2023/01/19 12:49:42;;;;;;;8.15;2.22;;;;;;;20.11;43.20;101555.63;21078297;28;20040;-61
2023/01/19 12:59:44;;;;;;;10.70;3.00;;;;;;;20.19;42.97;101588.53;21077710;28;20168;-61
2023/01/19 13:09:51;;;;;;;4.45;2.65;;;;;;;20.11;42.39;101566.75;21076769;28;20440;-61
2023/01/19 13:20:04;;;;;;;4.68;2.47;;;;;;;20.00;42.43;101543.56;21076729;28;20059;-61
2023/01/19 13:30:16;;;;;;;4.43;2.50;;;;;;;20.28;42.15;101577.78;21076043;28;20043;-60
2023/01/19 13:40:24;;;;;;;4.72;2.25;;;;;;;20.31;42.05;101553.09;21075773;28;20036;-61
2023/01/19 13:50:32;;;;;;;4.10;2.33;;;;;;;20.33;41.97;101613.13;21089895;28;20036;-61
2023/01/19 14:00:34;;;;;;;3.13;2.07;;;;;;;20.34;42.27;101571.16;21092904;28;20364;-61
2023/01/19 14:10:40;;;;;;;3.65;2.60;;;;;;;20.23;41.87;101575.78;21090913;28;20146;-59
2023/01/19 14:21:07;;;;;;;3.28;2.22;;;;;;;20.33;42.02;101563.09;21090542;28;20471;-59
2023/01/19 14:31:23;;;;;;;4.40;2.40;;;;;;;20.33;41.47;101591.72;21089252;28;20098;-60
2023/01/19 14:41:46;;;;;;;3.78;2.40;;;;;;;20.31;41.84;101644.81;21088878;28;20440;-60
2023/01/19 14:51:48;;;;;;;3.75;2.60;;;;;;;20.33;41.49;101607.56;21088116;28;20120;-61
2023/01/19 15:01:50;;;;;;;2.95;2.63;;;;;;;20.35;41.55;101595.09;21086048;28;20051;-61
2023/01/19 15:11:52;;;;;;;2.53;2.33;;;;;;;20.31;41.57;101541.97;21086555;28;20052;-60
2023/01/19 15:21:56;;;;;;;3.08;2.38;;;;;;;20.33;41.40;101496.41;21085275;28;20036;-60
2023/01/19 15:31:57;;;;;;;5.57;2.42;;;;;;;20.25;41.29;101490.22;21084523;28;20040;-59
2023/01/19 15:41:59;;;;;;;5.40;2.80;;;;;;;20.34;41.28;101478.59;21083937;28;20148;-60
2023/01/19 15:52:00;;;;;;;4.47;2.80;;;;;;;20.32;41.09;101426.06;21082796;28;20044;-61
2023/01/19 16:02:02;;;;;;;3.45;2.42;;;;;;;20.21;41.16;101374.31;21080700;28;20093;-60
2023/01/19 16:12:04;;;;;;;5.50;2.80;;;;;;;20.20;41.50;101376.22;21081721;28;20055;-60
2023/01/19 16:22:05;;;;;;;3.00;2.58;;;;;;;20.26;41.10;101325.16;21080770;28;20040;-61
2023/01/19 16:32:06;;;;;;;2.80;2.53;;;;;;;20.23;41.38;101286.78;21080189;28;20376;-61
2023/01/19 16:42:08;;;;;;;6.90;2.85;;;;;;;20.24;40.92;101295.94;21079430;28;20040;-61
2023/01/19 16:52:09;;;;;;;19.42;3.50;;;;;;;20.20;41.34;101259.50;21078146;28;20040;-60
2023/01/19 17:02:11;;;;;;;47.83;5.88;;;;;;;20.22;41.68;101201.75;21077732;28;20479;-63
2023/01/19 17:12:15;;;;;;;70.43;7.38;;;;;;;20.20;41.93;101220.59;21076886;28;20044;-62
2023/01/19 17:22:16;;;;;;;53.67;6.93;;;;;;;20.16;41.95;101186.16;21074367;28;20433;-61
2023/01/19 17:32:17;;;;;;;49.58;7.03;;;;;;;20.15;41.75;101148.34;21065920;28;20040;-61
2023/01/19 17:42:23;;;;;;;55.53;7.85;;;;;;;20.13;42.17;101142.22;21074001;28;20028;-62
2023/01/19 17:52:27;;;;;;;54.50;7.53;;;;;;;20.12;42.93;101090.56;21073492;28;20483;-62
2023/01/19 18:02:28;;;;;;;34.67;6.10;;;;;;;20.13;42.71;101025.53;21073751;28;20043;-62
2023/01/19 18:12:30;;;;;;;35.47;6.75;;;;;;;20.13;43.05;100986.66;21073480;28;20055;-62
2023/01/19 18:22:32;;;;;;;40.47;6.07;;;;;;;19.97;42.86;100915.50;21073710;28;20058;-62
2023/01/19 18:32:34;;;;;;;34.28;5.45;;;;;;;20.12;43.26;100912.75;21078310;28;20036;-61
2023/01/19 18:42:36;;;;;;;54.50;7.57;;;;;;;20.10;43.04;100880.78;21037593;28;20043;-62
2023/01/19 18:52:37;;;;;;;38.55;6.50;;;;;;;19.82;42.80;100813.56;21003041;28;20076;-62
2023/01/19 19:02:38;;;;;;;39.45;6.53;;;;;;;20.13;42.77;100836.63;21002077;28;20534;-62
2023/01/19 19:12:40;;;;;;;65.22;8.30;;;;;;;20.27;42.39;100845.25;21031670;28;20048;-62
2023/01/19 19:22:41;;;;;;;42.22;6.65;;;;;;;20.36;43.02;100859.41;21004265;28;20040;-62
2023/01/19 19:32:43;;;;;;;71.03;6.25;;;;;;;20.44;42.94;100856.06;21001114;28;20071;-63
2023/01/19 19:42:44;;;;;;;92.78;7.68;;;;;;;20.52;42.98;100855.50;20998331;28;20032;-63
2023/01/19 19:52:45;;;;;;;117.38;9.15;;;;;;;20.52;42.81;100833.28;20996854;28;20044;-62
2023/01/19 20:02:49;;;;;;;101.10;7.80;;;;;;;20.64;42.53;100814.34;20996684;28;20488;-62
2023/01/19 20:12:57;;;;;;;83.93;7.43;;;;;;;20.52;42.31;100722.09;20995943;28;20059;-62
2023/01/19 20:23:00;;;;;;;60.05;6.32;;;;;;;20.73;42.23;100711.72;20994987;28;20037;-62
2023/01/19 20:33:01;;;;;;;67.03;6.90;;;;;;;20.85;42.18;100741.97;20994667;28;20036;-62
2023/01/19 20:43:06;;;;;;;60.58;5.78;;;;;;;20.88;42.37;100719.97;20993869;28;20495;-62
2023/01/19 20:53:08;;;;;;;51.42;5.70;;;;;;;20.93;42.04;100719.13;20992048;28;20041;-63
2023/01/19 21:03:09;;;;;;;36.45;4.53;;;;;;;20.93;42.17;100717.16;20992253;28;20479;-63
2023/01/19 21:13:11;;;;;;;76.05;6.88;;;;;;;20.94;42.37;100713.28;20991263;28;20045;-63
2023/01/19 21:23:16;;;;;;;148.77;10.75;;;;;;;20.93;42.17;100661.53;21029861;28;20048;-63
2023/01/19 21:33:22;;;;;;;268.05;16.20;;;;;;;20.92;42.46;100564.50;21075721;28;20077;-63
2023/01/19 21:43:25;;;;;;;216.48;13.68;;;;;;;20.90;42.54;100547.28;21075340;28;20073;-62
2023/01/19 21:53:30;;;;;;;104.55;9.68;;;;;;;20.90;42.79;100550.06;21075240;28;20044;-64
2023/01/19 22:03:31;;;;;;;88.82;7.57;;;;;;;20.88;42.70;100532.81;21075366;28;20074;-64
2023/01/19 22:13:48;;;;;;;64.00;5.55;;;;;;;20.90;42.59;100538.94;21067605;28;20094;-63
2023/01/19 22:24:00;;;;;;;55.97;5.93;;;;;;;20.86;42.42;100496.13;21081309;28;20045;-63
2023/01/19 22:34:09;;;;;;;43.13;4.20;;;;;;;20.89;42.84;100510.28;21025790;28;20032;-63
2023/01/19 22:44:22;;;;;;;27.63;3.92;;;;;;;20.88;42.57;100486.34;21018086;28;20068;-63
2023/01/19 22:54:23;;;;;;;45.80;4.88;;;;;;;20.87;42.89;100467.19;21002769;28;20033;-63
2023/01/19 23:04:25;;;;;;;71.85;6.43;;;;;;;20.81;42.78;100458.91;21001441;28;20476;-61
2023/01/19 23:14:28;;;;;;;69.22;6.50;;;;;;;20.55;43.11;100394.34;21000889;28;20407;-61
2023/01/19 23:24:29;;;;;;;58.85;5.10;;;;;;;20.78;43.42;100409.41;20999970;28;20052;-63
2023/01/19 23:34:36;;;;;;;83.47;6.40;;;;;;;20.77;43.00;100379.97;21040379;28;20352;-62
2023/01/19 23:44:38;;;;;;;53.30;5.43;;;;;;;20.74;43.80;100358.28;21066966;28;20040;-62
2023/01/19 23:54:39;;;;;;;50.85;4.47;;;;;;;20.73;43.80;100328.84;21079424;28;20117;-62
